Main page
METAR-TAF:

METAR-TAF

Airports :

Carajás Airport

Parauapebas, Pará, Brazil

latitude: 06-07S, longitude: 050-00W, elevation: 621 m

Current weather observation

The report was made 10 hours and 22 minutes ago, at 21:30 UTC
Calm wind
Temperature 25°C
Humidity 83%
Pressure 1014 hPa
Visibility 10 km or more
Scattered clouds at a height of 1800 ft

METAR: SBCJ 192130Z 00000KT 9999 SCT018 25/22 Q1014

Time: 04:52 (07:52 UTC)

Forecast

The report was made 3 hours and 52 minutes ago, at 04:00 UTC
Forecast valid from 20 at 06 UTC to 20 at 18 UTC
Wind 5 kt from the Northeast
Visibility 10 km or more
Broken clouds at a height of 800 ft
Becoming
from 20 at 14 UTC to 20 at 15 UTC
Broken clouds at a height of 1700 ft
Probability 30% :
Temporary
from 20 at 15 UTC to 20 at 17 UTC
Scattered clouds at a height of 2500 ft
Few clouds at a height of 3000 ft, Towering cumulus.

TAF: SBCJ 200400Z 2006/2018 04005KT 9999 BKN008 TN21/2007Z TX28/2017Z BECMG 2014/2015 BKN017 PROB30 TEMPO 2015/2017 SCT025 FEW030TCU RMK PEM

Weather observations and forecasts of more than 4000 airports (METAR and TAF reports).

The available stations are represented by yellow and red dots on the map.

Hover mouse over dot to see the name of the station.

Then click to see weather observations and forecasts.

To change the map : click on the green buttons with a black cross to zoom in, on the green button with a dash to zoom out, or on the green arrows for adjacent maps.


METAR-TAF: